createdAt,value
2022-08-21T00:00:57.542Z,99.90
2022-08-21T00:03:25.829Z,99.90
2022-08-21T00:05:55.466Z,99.90
2022-08-21T00:08:23.877Z,99.90
2022-08-21T00:10:53.215Z,99.90
2022-08-21T00:13:22.597Z,99.90
2022-08-21T00:15:52.431Z,99.90
2022-08-21T00:18:21.380Z,99.90
2022-08-21T00:20:49.952Z,99.90
2022-08-21T00:23:20.313Z,99.90
2022-08-21T00:25:50.001Z,99.90
2022-08-21T00:28:19.258Z,99.90
2022-08-21T00:30:47.906Z,99.90
2022-08-21T00:33:16.371Z,99.90
2022-08-21T00:35:45.701Z,99.90
2022-08-21T00:38:15.406Z,99.90
2022-08-21T00:40:50.509Z,99.90
2022-08-21T00:43:25.245Z,99.90
2022-08-21T00:45:54.555Z,99.90
2022-08-21T00:48:23.815Z,99.90
2022-08-21T00:50:58.461Z,99.90
2022-08-21T00:53:28.921Z,99.90
2022-08-21T00:56:00.353Z,99.90
2022-08-21T00:58:32.722Z,99.90
2022-08-21T01:01:08.426Z,99.90
2022-08-21T01:03:37.974Z,99.90
2022-08-21T01:06:13.909Z,99.90
2022-08-21T01:08:46.869Z,99.90
2022-08-21T01:11:18.297Z,99.90
2022-08-21T01:13:48.067Z,99.90
2022-08-21T01:16:22.913Z,99.90
2022-08-21T01:18:53.150Z,99.90
2022-08-21T01:21:28.209Z,99.90
2022-08-21T01:23:58.996Z,99.90
2022-08-21T01:26:34.521Z,99.90
2022-08-21T01:29:11.939Z,99.90
2022-08-21T01:31:41.116Z,99.90
2022-08-21T01:34:11.481Z,99.90
2022-08-21T01:36:41.297Z,99.90
2022-08-21T01:39:10.224Z,99.90
2022-08-21T01:41:39.175Z,99.90
2022-08-21T01:44:07.828Z,99.90
2022-08-21T01:46:36.741Z,99.90
2022-08-21T01:49:06.055Z,99.90
2022-08-21T01:51:34.641Z,99.90
2022-08-21T01:54:04.667Z,99.90
2022-08-21T01:56:39.809Z,99.90
2022-08-21T01:59:09.411Z,99.90
2022-08-21T02:01:40.335Z,99.90
2022-08-21T02:04:10.953Z,99.90
2022-08-21T02:06:40.575Z,99.90
2022-08-21T02:09:13.297Z,99.90
2022-08-21T02:11:44.113Z,99.90
2022-08-21T02:14:15.920Z,99.90
2022-08-21T02:17:05.437Z,99.90
2022-08-21T02:19:40.762Z,99.90
2022-08-21T02:22:11.330Z,99.90
2022-08-21T02:24:54.770Z,99.90
2022-08-21T02:27:26.603Z,99.90
2022-08-21T02:29:58.371Z,99.90
2022-08-21T02:32:27.543Z,99.90
2022-08-21T02:34:56.001Z,99.90
2022-08-21T02:37:25.152Z,99.90
2022-08-21T02:39:54.863Z,99.90
2022-08-21T02:42:23.615Z,99.90
2022-08-21T02:44:52.310Z,99.90
2022-08-21T02:47:21.009Z,99.90
2022-08-21T02:49:49.337Z,99.90
2022-08-21T02:52:17.629Z,99.90
2022-08-21T02:54:45.916Z,99.90
2022-08-21T02:57:16.620Z,99.90
2022-08-21T02:59:44.914Z,99.90
2022-08-21T03:02:13.397Z,99.90
2022-08-21T03:04:46.397Z,99.90
2022-08-21T03:07:16.249Z,99.90
2022-08-21T03:09:45.613Z,99.90
2022-08-21T03:12:29.935Z,99.90
2022-08-21T03:14:59.691Z,99.90
2022-08-21T03:17:29.717Z,99.90
2022-08-21T03:19:59.996Z,99.90
2022-08-21T03:22:30.856Z,99.90
2022-08-21T03:24:59.744Z,99.90
2022-08-21T03:27:31.796Z,99.90
2022-08-21T03:30:00.456Z,99.90
2022-08-21T03:32:30.044Z,99.90
2022-08-21T03:34:58.937Z,99.90
2022-08-21T03:37:27.293Z,99.90
2022-08-21T03:39:56.396Z,99.90
2022-08-21T03:42:25.012Z,99.90
2022-08-21T03:44:54.820Z,99.90
2022-08-21T03:47:23.675Z,99.90
2022-08-21T03:49:52.392Z,99.90
2022-08-21T03:52:20.841Z,99.90
2022-08-21T03:54:49.345Z,99.90
2022-08-21T03:57:17.817Z,99.90
2022-08-21T03:59:46.391Z,99.90
2022-08-21T04:02:22.712Z,99.90
2022-08-21T04:04:51.041Z,99.90
2022-08-21T04:07:19.737Z,99.90
2022-08-21T04:09:48.399Z,99.90
2022-08-21T04:12:16.699Z,99.90
2022-08-21T04:14:45.459Z,99.90
2022-08-21T04:17:15.149Z,99.90
2022-08-21T04:19:43.486Z,99.90
2022-08-21T04:22:12.243Z,99.90
2022-08-21T04:24:40.680Z,99.90
2022-08-21T04:27:09.577Z,99.90
2022-08-21T04:29:40.013Z,99.90
2022-08-21T04:32:08.965Z,99.90
2022-08-21T04:34:38.812Z,99.90
2022-08-21T04:37:07.131Z,99.90
2022-08-21T04:39:35.884Z,99.90
2022-08-21T04:42:07.652Z,99.90
2022-08-21T04:44:36.141Z,99.90
2022-08-21T04:47:04.627Z,99.90
2022-08-21T04:49:32.908Z,99.90
2022-08-21T04:52:03.674Z,99.90
2022-08-21T04:54:32.216Z,99.90
2022-08-21T04:57:08.572Z,99.90
2022-08-21T04:59:41.878Z,99.90
2022-08-21T05:02:13.432Z,99.90
2022-08-21T05:04:48.408Z,99.90
2022-08-21T05:07:42.012Z,99.90
2022-08-21T05:10:12.510Z,99.90
2022-08-21T05:12:43.797Z,99.90
2022-08-21T05:15:13.949Z,99.90
2022-08-21T05:17:42.870Z,99.90
2022-08-21T05:20:15.363Z,99.90
2022-08-21T05:22:45.036Z,99.90
2022-08-21T05:25:13.465Z,99.90
2022-08-21T05:27:42.781Z,99.90
2022-08-21T05:30:13.183Z,99.90
2022-08-21T05:32:41.475Z,99.90
2022-08-21T05:35:10.652Z,99.90
2022-08-21T05:37:39.004Z,99.90
2022-08-21T05:40:22.507Z,99.90
2022-08-21T05:42:54.441Z,99.90
2022-08-21T05:45:42.302Z,99.90
2022-08-21T05:48:16.013Z,99.90
2022-08-21T05:50:48.980Z,99.90
2022-08-21T05:53:20.797Z,99.90
2022-08-21T05:55:52.521Z,99.90
2022-08-21T05:58:23.803Z,99.90
2022-08-21T06:00:54.314Z,99.90
2022-08-21T06:03:26.615Z,99.90
2022-08-21T06:05:56.603Z,99.90
2022-08-21T06:08:26.945Z,99.90
2022-08-21T06:10:59.815Z,99.90
2022-08-21T06:13:29.168Z,99.90
2022-08-21T06:16:07.190Z,99.90
2022-08-21T06:18:37.021Z,99.90
2022-08-21T06:21:06.580Z,99.90
2022-08-21T06:23:36.304Z,99.90
2022-08-21T06:26:08.689Z,99.90
2022-08-21T06:28:38.708Z,99.90
2022-08-21T06:31:15.401Z,99.90
2022-08-21T06:33:44.019Z,99.90
2022-08-21T06:36:12.633Z,99.90
2022-08-21T06:38:41.489Z,99.90
2022-08-21T06:41:19.390Z,99.70
2022-08-21T06:43:52.774Z,99.90
2022-08-21T06:46:21.208Z,97.60
2022-08-21T06:48:50.399Z,93.40
2022-08-21T06:51:20.123Z,92.40
2022-08-21T06:53:49.688Z,94.60
2022-08-21T06:56:19.633Z,92.30
2022-08-21T06:58:48.269Z,90.00
2022-08-21T07:01:17.364Z,90.40
2022-08-21T07:03:46.028Z,87.40
2022-08-21T07:06:14.425Z,88.50
2022-08-21T07:08:43.003Z,90.20
2022-08-21T07:11:19.657Z,89.30
2022-08-21T07:13:52.391Z,89.40
2022-08-21T07:16:21.399Z,88.90
2022-08-21T07:18:50.724Z,91.00
2022-08-21T07:21:23.875Z,91.50
2022-08-21T07:23:54.526Z,92.00
2022-08-21T07:26:25.164Z,91.10
2022-08-21T07:28:55.697Z,91.10
2022-08-21T07:31:27.043Z,92.20
2022-08-21T07:33:55.956Z,92.20
2022-08-21T07:36:24.781Z,92.10
2022-08-21T07:38:53.736Z,92.40
2022-08-21T07:41:26.276Z,92.30
2022-08-21T07:43:56.778Z,91.70
2022-08-21T07:46:26.592Z,91.10
2022-08-21T07:48:55.784Z,91.30
2022-08-21T07:51:29.625Z,90.40
2022-08-21T07:54:00.296Z,89.20
2022-08-21T07:56:30.284Z,89.80
2022-08-21T07:59:00.536Z,91.00
2022-08-21T08:01:29.395Z,90.90
2022-08-21T08:03:58.623Z,92.30
2022-08-21T08:06:27.002Z,92.10
2022-08-21T08:08:55.372Z,92.90
2022-08-21T08:11:23.986Z,94.00
2022-08-21T08:13:54.427Z,92.90
2022-08-21T08:16:24.019Z,92.30
2022-08-21T08:18:52.414Z,93.40
2022-08-21T08:21:21.879Z,93.20
2022-08-21T08:23:50.817Z,92.10
2022-08-21T08:26:19.415Z,91.40
2022-08-21T08:28:48.627Z,92.80
2022-08-21T08:31:16.965Z,92.10
2022-08-21T08:33:46.736Z,91.50
2022-08-21T08:36:18.276Z,91.00
2022-08-21T08:38:49.775Z,90.90
2022-08-21T08:41:23.880Z,92.10
2022-08-21T08:44:05.372Z,94.90
2022-08-21T08:46:40.370Z,95.90
2022-08-21T08:49:21.489Z,96.10
2022-08-21T08:52:01.415Z,96.70
2022-08-21T08:54:37.360Z,97.70
2022-08-21T08:57:16.341Z,98.20
2022-08-21T08:59:50.268Z,99.90
2022-08-21T09:02:21.947Z,99.90
2022-08-21T09:04:53.571Z,99.90
2022-08-21T09:07:41.731Z,99.90
2022-08-21T09:10:19.117Z,99.90
2022-08-21T09:12:58.558Z,99.90
2022-08-21T09:15:36.590Z,99.90
2022-08-21T09:18:25.471Z,99.90
2022-08-21T09:21:12.007Z,99.90
2022-08-21T09:23:56.858Z,99.90
2022-08-21T09:26:29.039Z,99.90
2022-08-21T09:29:01.584Z,99.00
2022-08-21T09:31:34.800Z,99.10
2022-08-21T09:34:08.337Z,98.60
2022-08-21T09:36:44.005Z,97.90
2022-08-21T09:39:16.159Z,98.40
2022-08-21T09:41:44.998Z,98.60
2022-08-21T09:44:13.287Z,99.50
2022-08-21T09:46:53.523Z,99.40
2022-08-21T09:49:31.099Z,99.90
2022-08-21T09:52:03.396Z,99.90
2022-08-21T09:54:39.145Z,99.90
2022-08-21T09:57:41.689Z,99.90
2022-08-21T10:00:26.288Z,99.90
2022-08-21T10:02:55.413Z,98.50
2022-08-21T10:05:29.199Z,97.60
2022-08-21T10:07:58.944Z,97.20
2022-08-21T10:10:31.837Z,96.50
2022-08-21T10:13:14.017Z,97.00
2022-08-21T10:16:00.013Z,97.50
2022-08-21T10:18:37.464Z,99.20
2022-08-21T10:21:19.581Z,99.70
2022-08-21T10:24:06.857Z,99.90
2022-08-21T10:26:49.956Z,99.90
2022-08-21T10:29:42.066Z,99.90
2022-08-21T10:32:39.924Z,99.90
2022-08-21T10:35:19.431Z,99.90
2022-08-21T10:38:05.086Z,99.90
2022-08-21T10:40:47.247Z,99.90
2022-08-21T10:43:32.598Z,99.90
2022-08-21T10:46:14.803Z,99.90
2022-08-21T10:48:52.557Z,99.90
2022-08-21T10:51:35.382Z,99.90
2022-08-21T10:54:18.195Z,99.90
2022-08-21T10:57:04.312Z,99.90
2022-08-21T10:59:44.442Z,99.90
2022-08-21T11:02:21.365Z,99.90
2022-08-21T11:04:59.507Z,99.90
2022-08-21T11:07:34.630Z,99.90
2022-08-21T11:10:12.275Z,99.90
2022-08-21T11:12:51.814Z,99.90
2022-08-21T11:15:35.774Z,99.90
2022-08-21T11:18:19.053Z,99.90
2022-08-21T11:20:58.422Z,99.90
2022-08-21T11:23:33.397Z,99.90
2022-08-21T11:26:09.735Z,99.90
2022-08-21T11:28:48.463Z,99.90
2022-08-21T11:31:39.864Z,99.90
2022-08-21T11:34:30.172Z,99.90
2022-08-21T11:37:12.946Z,99.90
2022-08-21T11:39:58.602Z,99.90
2022-08-21T11:42:40.452Z,99.90
2022-08-21T11:45:26.159Z,99.90
2022-08-21T11:48:12.123Z,99.40
2022-08-21T11:50:45.130Z,99.70
2022-08-21T11:53:19.955Z,99.00
2022-08-21T11:55:55.140Z,98.70
2022-08-21T11:58:30.581Z,98.90
2022-08-21T12:01:09.312Z,97.50
2022-08-21T12:03:44.152Z,97.80
2022-08-21T12:06:23.987Z,98.40
2022-08-21T12:09:02.839Z,98.90
2022-08-21T12:11:31.812Z,99.50
2022-08-21T12:14:14.768Z,99.90
2022-08-21T12:16:48.217Z,99.90
2022-08-21T12:19:32.719Z,99.90
2022-08-21T12:22:12.199Z,98.90
2022-08-21T12:24:44.792Z,98.00
2022-08-21T12:27:30.427Z,98.50
2022-08-21T12:30:08.057Z,98.70
2022-08-21T12:32:55.972Z,97.90
2022-08-21T12:35:33.681Z,97.90
2022-08-21T12:38:09.379Z,98.80
2022-08-21T12:40:44.863Z,98.50
2022-08-21T12:43:20.327Z,98.00
2022-08-21T12:45:53.387Z,97.20
2022-08-21T12:48:35.371Z,97.20
2022-08-21T12:51:14.834Z,97.10
2022-08-21T12:53:50.817Z,96.90
2022-08-21T12:56:25.137Z,97.30
2022-08-21T12:58:58.785Z,97.20
2022-08-21T13:01:38.190Z,97.70
2022-08-21T13:04:17.431Z,97.60
2022-08-21T13:06:49.244Z,97.30
2022-08-21T13:09:23.921Z,97.60
2022-08-21T13:11:53.735Z,97.00
2022-08-21T13:14:32.300Z,97.50
2022-08-21T13:17:04.981Z,96.80
2022-08-21T13:19:35.920Z,96.80
2022-08-21T13:22:33.551Z,97.30
2022-08-21T13:24:54.736Z,96.70
2022-08-21T13:27:31.536Z,96.30
2022-08-21T13:30:11.362Z,95.40
2022-08-21T13:32:47.015Z,95.30
2022-08-21T13:35:21.462Z,96.10
2022-08-21T13:37:53.084Z,95.80
2022-08-21T13:40:26.939Z,95.30
2022-08-21T13:42:56.267Z,95.20
2022-08-21T13:45:29.099Z,94.90
2022-08-21T13:47:57.872Z,95.60
2022-08-21T13:50:28.644Z,95.30
2022-08-21T13:53:03.352Z,94.70
2022-08-21T13:55:42.535Z,94.20
2022-08-21T13:58:13.232Z,94.20
2022-08-21T14:00:50.100Z,94.50
2022-08-21T14:03:34.095Z,94.50
2022-08-21T14:06:12.154Z,94.60
2022-08-21T14:08:43.867Z,94.40
2022-08-21T14:11:15.779Z,95.00
2022-08-21T14:13:48.216Z,95.30
2022-08-21T14:16:22.148Z,94.80
2022-08-21T14:18:55.161Z,94.30
2022-08-21T14:21:34.181Z,94.40
2022-08-21T14:24:11.051Z,93.90
2022-08-21T14:26:53.532Z,94.00
2022-08-21T14:29:26.627Z,94.20
2022-08-21T14:31:57.994Z,93.70
2022-08-21T14:34:34.194Z,93.00
2022-08-21T14:37:06.422Z,93.10
2022-08-21T14:39:35.360Z,93.00
2022-08-21T14:42:04.968Z,93.20
2022-08-21T14:44:33.925Z,93.30
2022-08-21T14:47:02.329Z,92.00
2022-08-21T14:49:31.264Z,92.40
2022-08-21T14:52:00.452Z,91.60
2022-08-21T14:54:33.584Z,91.20
2022-08-21T14:57:08.588Z,90.50
2022-08-21T14:59:39.056Z,90.50
2022-08-21T15:02:11.913Z,90.40
2022-08-21T15:04:40.294Z,90.20
2022-08-21T15:07:09.167Z,89.70
2022-08-21T15:09:38.819Z,90.00
2022-08-21T15:12:09.495Z,89.50
2022-08-21T15:14:42.060Z,89.60
2022-08-21T15:17:13.156Z,89.50
2022-08-21T15:19:42.077Z,89.10
2022-08-21T15:22:18.673Z,89.60
2022-08-21T15:24:49.119Z,89.30
2022-08-21T15:27:20.453Z,90.00
2022-08-21T15:29:49.327Z,90.20
2022-08-21T15:32:23.714Z,90.00
2022-08-21T15:34:52.970Z,89.20
2022-08-21T15:37:22.450Z,89.00
2022-08-21T15:39:54.420Z,88.50
2022-08-21T15:42:24.071Z,88.50
2022-08-21T15:44:54.124Z,88.20
2022-08-21T15:47:28.156Z,88.80
2022-08-21T15:49:56.467Z,89.00
2022-08-21T15:52:25.497Z,88.90
2022-08-21T15:54:55.375Z,89.30
2022-08-21T15:57:26.184Z,88.30
2022-08-21T15:59:59.720Z,88.20
2022-08-21T16:02:32.102Z,89.40
2022-08-21T16:05:01.079Z,89.80
2022-08-21T16:07:29.979Z,89.00
2022-08-21T16:10:00.177Z,89.30
2022-08-21T16:12:33.802Z,89.00
2022-08-21T16:15:06.164Z,87.80
2022-08-21T16:17:37.627Z,87.10
2022-08-21T16:20:11.667Z,88.40
2022-08-21T16:22:44.617Z,88.00
2022-08-21T16:25:17.573Z,88.90
2022-08-21T16:27:55.259Z,89.50
2022-08-21T16:30:28.873Z,88.90
2022-08-21T16:32:58.023Z,87.60
2022-08-21T16:35:26.914Z,87.80
2022-08-21T16:37:55.702Z,87.50
2022-08-21T16:40:27.127Z,86.70
2022-08-21T16:42:56.262Z,86.80
2022-08-21T16:45:24.671Z,86.20
2022-08-21T16:47:53.620Z,86.90
2022-08-21T16:50:25.765Z,86.20
2022-08-21T16:52:54.859Z,86.80
2022-08-21T16:55:23.229Z,87.00
2022-08-21T16:57:54.377Z,87.30
2022-08-21T17:00:23.257Z,87.40
2022-08-21T17:02:56.344Z,86.40
2022-08-21T17:05:25.671Z,86.80
2022-08-21T17:07:53.982Z,86.40
2022-08-21T17:10:23.340Z,86.60
2022-08-21T17:12:59.359Z,87.00
2022-08-21T17:15:33.312Z,87.60
2022-08-21T17:18:02.390Z,87.80
2022-08-21T17:20:31.382Z,87.90
2022-08-21T17:23:00.338Z,88.10
2022-08-21T17:25:29.542Z,88.10
2022-08-21T17:28:00.045Z,88.60
2022-08-21T17:30:28.962Z,89.10
2022-08-21T17:33:01.098Z,89.90
2022-08-21T17:35:30.300Z,90.20
2022-08-21T17:37:59.241Z,90.40
2022-08-21T17:40:28.446Z,90.70
2022-08-21T17:42:59.616Z,90.80
2022-08-21T17:45:28.865Z,91.10
2022-08-21T17:47:57.201Z,91.40
2022-08-21T17:50:25.879Z,91.40
2022-08-21T17:52:54.171Z,91.70
2022-08-21T17:55:23.280Z,92.00
2022-08-21T17:57:53.324Z,92.50
2022-08-21T18:00:26.712Z,93.50
2022-08-21T18:03:05.636Z,94.50
2022-08-21T18:05:34.039Z,95.20
2022-08-21T18:08:02.687Z,95.80
2022-08-21T18:10:31.561Z,96.50
2022-08-21T18:13:04.320Z,97.10
2022-08-21T18:15:35.755Z,97.40
2022-08-21T18:18:06.447Z,97.80
2022-08-21T18:20:35.125Z,98.30
2022-08-21T18:23:03.448Z,98.70
2022-08-21T18:25:32.135Z,99.10
2022-08-21T18:28:04.229Z,99.40
2022-08-21T18:30:38.997Z,99.80
2022-08-21T18:33:10.535Z,99.90
2022-08-21T18:35:40.185Z,99.90
2022-08-21T18:38:09.821Z,99.90
2022-08-21T18:40:45.161Z,99.90
2022-08-21T18:43:15.595Z,99.90
2022-08-21T18:45:45.777Z,99.90
2022-08-21T18:48:17.618Z,99.90
2022-08-21T18:50:48.197Z,99.90
2022-08-21T18:53:27.664Z,99.90
2022-08-21T18:56:05.015Z,99.90
2022-08-21T18:58:47.131Z,99.90
2022-08-21T19:01:17.664Z,99.90
2022-08-21T19:03:47.053Z,99.90
2022-08-21T19:06:19.063Z,99.90
2022-08-21T19:08:47.705Z,99.90
2022-08-21T19:11:23.365Z,99.90
2022-08-21T19:13:54.153Z,99.90
2022-08-21T19:16:24.742Z,99.90
2022-08-21T19:18:54.329Z,99.90
2022-08-21T19:21:26.626Z,99.90
2022-08-21T19:23:56.744Z,99.90
2022-08-21T19:26:29.960Z,99.90
2022-08-21T19:29:03.704Z,99.90
2022-08-21T19:31:39.979Z,99.90
2022-08-21T19:34:17.668Z,99.90
2022-08-21T19:36:47.376Z,99.90
2022-08-21T19:39:17.739Z,99.90
2022-08-21T19:41:52.781Z,99.90
2022-08-21T19:44:25.482Z,99.90
2022-08-21T19:46:58.358Z,99.90
2022-08-21T19:49:33.308Z,99.90
2022-08-21T19:52:02.474Z,99.90
2022-08-21T19:54:42.520Z,99.90
2022-08-21T19:57:12.874Z,99.90
2022-08-21T19:59:43.280Z,99.90
2022-08-21T20:02:17.301Z,99.90
2022-08-21T20:04:53.295Z,99.90
2022-08-21T20:07:26.781Z,99.90
2022-08-21T20:09:55.568Z,99.90
2022-08-21T20:12:25.168Z,99.90
2022-08-21T20:14:54.654Z,99.90
2022-08-21T20:17:25.621Z,99.90
2022-08-21T20:19:55.090Z,99.90
2022-08-21T20:22:24.525Z,99.90
2022-08-21T20:24:55.184Z,99.90
2022-08-21T20:27:27.382Z,99.90
2022-08-21T20:29:56.529Z,99.90
2022-08-21T20:32:26.866Z,99.90
2022-08-21T20:34:55.171Z,99.90
2022-08-21T20:40:20.881Z,99.90
2022-08-21T20:42:54.445Z,99.90
2022-08-21T20:45:26.755Z,99.90
2022-08-21T20:48:04.402Z,99.90
2022-08-21T20:50:39.181Z,99.90
2022-08-21T20:53:15.065Z,99.90
2022-08-21T20:55:49.640Z,99.90
2022-08-21T20:58:40.963Z,99.90
2022-08-21T21:01:11.102Z,99.90
2022-08-21T21:03:46.370Z,99.90
2022-08-21T21:06:21.301Z,99.90
2022-08-21T21:08:58.042Z,99.90
2022-08-21T21:11:34.542Z,99.90
2022-08-21T21:14:14.265Z,99.90
2022-08-21T21:16:51.251Z,99.90
2022-08-21T21:22:26.173Z,99.90
2022-08-21T21:25:03.837Z,99.90
2022-08-21T21:27:38.470Z,99.90
2022-08-21T21:33:00.175Z,99.90
2022-08-21T21:35:39.177Z,99.90
2022-08-21T21:38:18.160Z,99.90
2022-08-21T21:41:02.220Z,99.90
2022-08-21T21:43:47.723Z,99.90
2022-08-21T21:46:34.793Z,99.90
2022-08-21T21:49:36.887Z,99.90
2022-08-21T21:52:27.380Z,99.90
2022-08-21T21:55:14.072Z,99.90
2022-08-21T21:58:16.722Z,99.90
2022-08-21T22:00:57.963Z,99.90
2022-08-21T22:03:33.005Z,99.90
2022-08-21T22:06:13.719Z,99.90
2022-08-21T22:08:52.787Z,99.90
2022-08-21T22:11:32.715Z,99.90
2022-08-21T22:14:12.949Z,99.90
2022-08-21T22:16:44.938Z,99.90
2022-08-21T22:19:22.619Z,99.90
2022-08-21T22:22:01.410Z,99.90
2022-08-21T22:24:37.278Z,99.90
2022-08-21T22:27:12.778Z,99.90
2022-08-21T22:29:49.389Z,99.90
2022-08-21T22:32:27.256Z,99.90
2022-08-21T22:38:01.383Z,99.90
2022-08-21T22:40:35.330Z,99.90
2022-08-21T22:43:07.717Z,99.90
2022-08-21T22:46:00.192Z,99.90
2022-08-21T22:48:33.547Z,99.90
2022-08-21T22:51:07.086Z,99.90
2022-08-21T22:53:40.561Z,99.90
2022-08-21T22:56:29.485Z,99.90
2022-08-21T22:59:01.960Z,99.90
2022-08-21T23:01:45.782Z,99.90
2022-08-21T23:04:22.421Z,99.90
2022-08-21T23:06:55.304Z,99.90
2022-08-21T23:09:35.382Z,99.90
2022-08-21T23:12:33.229Z,99.90
2022-08-21T23:15:07.324Z,99.90
2022-08-21T23:17:50.102Z,99.90
2022-08-21T23:20:30.544Z,99.90
2022-08-21T23:23:12.030Z,99.90
2022-08-21T23:26:06.252Z,99.90
2022-08-21T23:29:02.655Z,99.90
2022-08-21T23:31:46.857Z,99.90
2022-08-21T23:34:27.808Z,99.90
2022-08-21T23:37:42.444Z,99.90
2022-08-21T23:43:51.899Z,99.90
2022-08-21T23:46:48.679Z,99.90
2022-08-21T23:49:33.417Z,99.90
2022-08-21T23:52:20.279Z,99.90
2022-08-21T23:55:16.358Z,99.90
2022-08-21T23:58:02.558Z,99.90
